sensor_id;sensor_type;location;lat;lon;timestamp;P1;durP1;ratioP1;P2;durP2;ratioP2
53052;SDS011;38934;52.690;6.184;2022-07-29T00:01:42;4.40;;;1.80;;
53052;SDS011;38934;52.690;6.184;2022-07-29T00:04:08;3.35;;;1.58;;
53052;SDS011;38934;52.690;6.184;2022-07-29T00:06:33;2.97;;;1.60;;
53052;SDS011;38934;52.690;6.184;2022-07-29T00:08:59;4.72;;;1.60;;
53052;SDS011;38934;52.690;6.184;2022-07-29T00:11:25;3.05;;;1.77;;
53052;SDS011;38934;52.690;6.184;2022-07-29T00:13:50;1.85;;;1.65;;
53052;SDS011;38934;52.690;6.184;2022-07-29T00:16:16;2.63;;;1.50;;
53052;SDS011;38934;52.690;6.184;2022-07-29T00:18:41;1.50;;;1.40;;
53052;SDS011;38934;52.690;6.184;2022-07-29T00:21:07;4.00;;;1.85;;
53052;SDS011;38934;52.690;6.184;2022-07-29T00:23:33;3.33;;;1.67;;
53052;SDS011;38934;52.690;6.184;2022-07-29T00:25:58;2.78;;;1.88;;
53052;SDS011;38934;52.690;6.184;2022-07-29T00:28:24;3.58;;;1.92;;
53052;SDS011;38934;52.690;6.184;2022-07-29T00:30:49;2.10;;;1.60;;
53052;SDS011;38934;52.690;6.184;2022-07-29T00:33:15;4.28;;;1.58;;
53052;SDS011;38934;52.690;6.184;2022-07-29T00:35:40;3.55;;;1.63;;
53052;SDS011;38934;52.690;6.184;2022-07-29T00:38:09;3.08;;;2.00;;
53052;SDS011;38934;52.690;6.184;2022-07-29T00:40:36;3.58;;;1.90;;
53052;SDS011;38934;52.690;6.184;2022-07-29T00:43:02;2.45;;;1.80;;
53052;SDS011;38934;52.690;6.184;2022-07-29T00:45:27;2.33;;;2.00;;
53052;SDS011;38934;52.690;6.184;2022-07-29T00:47:55;4.40;;;1.83;;
53052;SDS011;38934;52.690;6.184;2022-07-29T00:50:21;3.50;;;1.70;;
53052;SDS011;38934;52.690;6.184;2022-07-29T00:52:48;5.28;;;2.03;;
53052;SDS011;38934;52.690;6.184;2022-07-29T00:55:15;4.53;;;2.00;;
53052;SDS011;38934;52.690;6.184;2022-07-29T00:57:41;3.78;;;1.92;;
53052;SDS011;38934;52.690;6.184;2022-07-29T01:00:09;2.30;;;1.67;;
53052;SDS011;38934;52.690;6.184;2022-07-29T01:05:12;4.07;;;1.95;;
53052;SDS011;38934;52.690;6.184;2022-07-29T01:07:37;2.45;;;1.90;;
53052;SDS011;38934;52.690;6.184;2022-07-29T01:10:04;2.25;;;2.00;;
53052;SDS011;38934;52.690;6.184;2022-07-29T01:12:33;3.95;;;2.25;;
53052;SDS011;38934;52.690;6.184;2022-07-29T01:15:01;2.72;;;2.38;;
53052;SDS011;38934;52.690;6.184;2022-07-29T01:20:02;3.72;;;2.05;;
53052;SDS011;38934;52.690;6.184;2022-07-29T01:22:31;4.15;;;2.10;;
53052;SDS011;38934;52.690;6.184;2022-07-29T01:25:25;3.05;;;2.28;;
53052;SDS011;38934;52.690;6.184;2022-07-29T01:31:25;3.53;;;1.98;;
53052;SDS011;38934;52.690;6.184;2022-07-29T01:34:21;2.33;;;1.92;;
53052;SDS011;38934;52.690;6.184;2022-07-29T01:36:55;4.97;;;2.38;;
53052;SDS011;38934;52.690;6.184;2022-07-29T01:39:32;3.85;;;2.00;;
53052;SDS011;38934;52.690;6.184;2022-07-29T01:42:10;2.30;;;2.10;;
53052;SDS011;38934;52.690;6.184;2022-07-29T01:44:40;4.28;;;2.00;;
53052;SDS011;38934;52.690;6.184;2022-07-29T01:47:31;2.75;;;2.20;;
53052;SDS011;38934;52.690;6.184;2022-07-29T01:50:03;4.60;;;2.40;;
53052;SDS011;38934;52.690;6.184;2022-07-29T01:52:34;2.70;;;2.05;;
53052;SDS011;38934;52.690;6.184;2022-07-29T01:55:17;2.60;;;1.90;;
53052;SDS011;38934;52.690;6.184;2022-07-29T01:57:47;4.03;;;2.10;;
53052;SDS011;38934;52.690;6.184;2022-07-29T02:00:15;2.75;;;2.05;;
53052;SDS011;38934;52.690;6.184;2022-07-29T02:02:42;3.45;;;2.33;;
53052;SDS011;38934;52.690;6.184;2022-07-29T02:05:10;3.33;;;2.28;;
53052;SDS011;38934;52.690;6.184;2022-07-29T02:07:40;3.78;;;2.40;;
53052;SDS011;38934;52.690;6.184;2022-07-29T02:10:07;2.60;;;2.15;;
53052;SDS011;38934;52.690;6.184;2022-07-29T02:12:34;2.72;;;2.30;;
53052;SDS011;38934;52.690;6.184;2022-07-29T02:15:02;3.53;;;2.50;;
53052;SDS011;38934;52.690;6.184;2022-07-29T02:17:32;3.63;;;2.30;;
53052;SDS011;38934;52.690;6.184;2022-07-29T02:20:02;4.00;;;2.40;;
53052;SDS011;38934;52.690;6.184;2022-07-29T02:22:30;2.45;;;2.25;;
53052;SDS011;38934;52.690;6.184;2022-07-29T02:24:58;4.05;;;2.45;;
53052;SDS011;38934;52.690;6.184;2022-07-29T02:27:25;2.80;;;2.08;;
53052;SDS011;38934;52.690;6.184;2022-07-29T02:29:53;2.72;;;2.30;;
53052;SDS011;38934;52.690;6.184;2022-07-29T02:32:21;3.65;;;2.17;;
53052;SDS011;38934;52.690;6.184;2022-07-29T02:34:49;2.05;;;1.92;;
53052;SDS011;38934;52.690;6.184;2022-07-29T02:37:16;3.30;;;2.20;;
53052;SDS011;38934;52.690;6.184;2022-07-29T02:39:43;3.58;;;1.92;;
53052;SDS011;38934;52.690;6.184;2022-07-29T02:42:13;5.53;;;2.38;;
53052;SDS011;38934;52.690;6.184;2022-07-29T02:44:40;3.55;;;2.22;;
53052;SDS011;38934;52.690;6.184;2022-07-29T02:52:47;3.28;;;2.15;;
53052;SDS011;38934;52.690;6.184;2022-07-29T02:58:08;3.45;;;2.15;;
53052;SDS011;38934;52.690;6.184;2022-07-29T03:00:40;3.72;;;2.20;;
53052;SDS011;38934;52.690;6.184;2022-07-29T03:03:11;3.95;;;2.10;;
53052;SDS011;38934;52.690;6.184;2022-07-29T03:05:39;3.58;;;2.30;;
53052;SDS011;38934;52.690;6.184;2022-07-29T03:08:05;4.13;;;1.95;;
53052;SDS011;38934;52.690;6.184;2022-07-29T03:10:34;2.55;;;2.05;;
53052;SDS011;38934;52.690;6.184;2022-07-29T03:13:01;3.10;;;2.05;;
53052;SDS011;38934;52.690;6.184;2022-07-29T03:15:28;3.85;;;2.15;;
53052;SDS011;38934;52.690;6.184;2022-07-29T03:17:54;3.95;;;2.17;;
53052;SDS011;38934;52.690;6.184;2022-07-29T03:20:20;2.95;;;2.10;;
53052;SDS011;38934;52.690;6.184;2022-07-29T03:22:46;4.15;;;2.30;;
53052;SDS011;38934;52.690;6.184;2022-07-29T03:25:13;2.95;;;2.03;;
53052;SDS011;38934;52.690;6.184;2022-07-29T03:27:40;3.05;;;2.13;;
53052;SDS011;38934;52.690;6.184;2022-07-29T03:30:07;3.15;;;2.00;;
53052;SDS011;38934;52.690;6.184;2022-07-29T03:32:34;2.78;;;1.92;;
53052;SDS011;38934;52.690;6.184;2022-07-29T03:35:00;3.53;;;2.10;;
53052;SDS011;38934;52.690;6.184;2022-07-29T03:37:25;2.45;;;2.10;;
53052;SDS011;38934;52.690;6.184;2022-07-29T03:39:51;3.45;;;2.25;;
53052;SDS011;38934;52.690;6.184;2022-07-29T03:42:19;2.20;;;1.85;;
53052;SDS011;38934;52.690;6.184;2022-07-29T03:44:47;2.45;;;1.88;;
53052;SDS011;38934;52.690;6.184;2022-07-29T03:47:15;4.78;;;1.95;;
53052;SDS011;38934;52.690;6.184;2022-07-29T03:49:44;3.25;;;2.17;;
53052;SDS011;38934;52.690;6.184;2022-07-29T03:52:13;2.72;;;2.17;;
53052;SDS011;38934;52.690;6.184;2022-07-29T03:54:39;3.40;;;2.10;;
53052;SDS011;38934;52.690;6.184;2022-07-29T03:57:05;2.58;;;1.90;;
53052;SDS011;38934;52.690;6.184;2022-07-29T03:59:32;3.92;;;2.08;;
53052;SDS011;38934;52.690;6.184;2022-07-29T04:01:58;3.30;;;1.90;;
53052;SDS011;38934;52.690;6.184;2022-07-29T04:04:26;4.35;;;2.05;;
53052;SDS011;38934;52.690;6.184;2022-07-29T04:06:52;3.45;;;2.20;;
53052;SDS011;38934;52.690;6.184;2022-07-29T04:09:17;3.08;;;2.00;;
53052;SDS011;38934;52.690;6.184;2022-07-29T04:11:43;3.00;;;2.00;;
53052;SDS011;38934;52.690;6.184;2022-07-29T04:14:10;3.47;;;2.00;;
53052;SDS011;38934;52.690;6.184;2022-07-29T04:16:35;3.85;;;2.00;;
53052;SDS011;38934;52.690;6.184;2022-07-29T04:19:01;4.25;;;1.98;;
53052;SDS011;38934;52.690;6.184;2022-07-29T04:21:27;5.38;;;1.90;;
53052;SDS011;38934;52.690;6.184;2022-07-29T04:23:52;2.33;;;2.05;;
53052;SDS011;38934;52.690;6.184;2022-07-29T04:26:19;3.67;;;2.20;;
53052;SDS011;38934;52.690;6.184;2022-07-29T04:28:45;5.07;;;2.22;;
53052;SDS011;38934;52.690;6.184;2022-07-29T04:31:11;3.13;;;2.03;;
53052;SDS011;38934;52.690;6.184;2022-07-29T04:33:37;3.10;;;2.10;;
53052;SDS011;38934;52.690;6.184;2022-07-29T04:36:04;3.83;;;2.00;;
53052;SDS011;38934;52.690;6.184;2022-07-29T04:38:29;5.32;;;2.30;;
53052;SDS011;38934;52.690;6.184;2022-07-29T04:40:55;3.80;;;2.22;;
53052;SDS011;38934;52.690;6.184;2022-07-29T04:43:21;3.10;;;2.13;;
53052;SDS011;38934;52.690;6.184;2022-07-29T04:45:46;4.03;;;2.40;;
53052;SDS011;38934;52.690;6.184;2022-07-29T04:48:12;2.45;;;2.10;;
53052;SDS011;38934;52.690;6.184;2022-07-29T04:50:38;3.90;;;2.28;;
53052;SDS011;38934;52.690;6.184;2022-07-29T04:53:05;3.10;;;2.03;;
53052;SDS011;38934;52.690;6.184;2022-07-29T04:55:31;2.83;;;2.10;;
53052;SDS011;38934;52.690;6.184;2022-07-29T04:57:56;2.65;;;1.90;;
53052;SDS011;38934;52.690;6.184;2022-07-29T05:00:22;3.90;;;2.17;;
53052;SDS011;38934;52.690;6.184;2022-07-29T05:02:48;3.05;;;2.10;;
53052;SDS011;38934;52.690;6.184;2022-07-29T05:05:14;3.13;;;1.88;;
53052;SDS011;38934;52.690;6.184;2022-07-29T05:07:40;2.90;;;2.13;;
53052;SDS011;38934;52.690;6.184;2022-07-29T05:10:05;4.18;;;2.05;;
53052;SDS011;38934;52.690;6.184;2022-07-29T05:12:31;4.90;;;2.30;;
53052;SDS011;38934;52.690;6.184;2022-07-29T05:14:57;2.65;;;2.17;;
53052;SDS011;38934;52.690;6.184;2022-07-29T05:17:22;3.80;;;2.10;;
53052;SDS011;38934;52.690;6.184;2022-07-29T05:19:48;3.38;;;2.30;;
53052;SDS011;38934;52.690;6.184;2022-07-29T05:22:16;3.60;;;2.22;;
53052;SDS011;38934;52.690;6.184;2022-07-29T05:24:45;2.95;;;2.05;;
53052;SDS011;38934;52.690;6.184;2022-07-29T05:27:11;2.83;;;2.00;;
53052;SDS011;38934;52.690;6.184;2022-07-29T05:29:36;5.00;;;2.33;;
53052;SDS011;38934;52.690;6.184;2022-07-29T05:32:02;3.55;;;2.10;;
53052;SDS011;38934;52.690;6.184;2022-07-29T05:34:28;4.63;;;2.05;;
53052;SDS011;38934;52.690;6.184;2022-07-29T05:36:54;3.38;;;2.05;;
53052;SDS011;38934;52.690;6.184;2022-07-29T05:39:20;3.78;;;2.50;;
53052;SDS011;38934;52.690;6.184;2022-07-29T05:41:45;5.53;;;2.10;;
53052;SDS011;38934;52.690;6.184;2022-07-29T05:44:11;3.38;;;2.22;;
53052;SDS011;38934;52.690;6.184;2022-07-29T05:46:38;2.38;;;2.03;;
53052;SDS011;38934;52.690;6.184;2022-07-29T05:49:04;2.78;;;1.95;;
53052;SDS011;38934;52.690;6.184;2022-07-29T05:51:31;4.65;;;2.00;;
53052;SDS011;38934;52.690;6.184;2022-07-29T05:53:57;4.72;;;2.00;;
53052;SDS011;38934;52.690;6.184;2022-07-29T05:56:23;4.25;;;2.20;;
53052;SDS011;38934;52.690;6.184;2022-07-29T05:58:49;3.83;;;2.00;;
53052;SDS011;38934;52.690;6.184;2022-07-29T06:01:14;3.83;;;2.22;;
53052;SDS011;38934;52.690;6.184;2022-07-29T06:03:41;2.88;;;2.20;;
53052;SDS011;38934;52.690;6.184;2022-07-29T06:06:07;5.40;;;2.20;;
53052;SDS011;38934;52.690;6.184;2022-07-29T06:08:33;5.45;;;2.00;;
53052;SDS011;38934;52.690;6.184;2022-07-29T06:10:59;4.80;;;2.00;;
53052;SDS011;38934;52.690;6.184;2022-07-29T06:13:25;3.60;;;2.13;;
53052;SDS011;38934;52.690;6.184;2022-07-29T06:15:51;3.45;;;1.90;;
53052;SDS011;38934;52.690;6.184;2022-07-29T06:18:17;2.40;;;1.85;;
53052;SDS011;38934;52.690;6.184;2022-07-29T06:20:43;7.45;;;2.40;;
53052;SDS011;38934;52.690;6.184;2022-07-29T06:23:08;4.18;;;2.15;;
53052;SDS011;38934;52.690;6.184;2022-07-29T06:25:35;3.03;;;1.90;;
53052;SDS011;38934;52.690;6.184;2022-07-29T06:28:01;3.50;;;2.25;;
53052;SDS011;38934;52.690;6.184;2022-07-29T06:30:27;3.42;;;2.10;;
53052;SDS011;38934;52.690;6.184;2022-07-29T06:32:53;4.18;;;2.25;;
53052;SDS011;38934;52.690;6.184;2022-07-29T06:35:20;3.75;;;1.95;;
53052;SDS011;38934;52.690;6.184;2022-07-29T06:37:46;3.95;;;2.00;;
53052;SDS011;38934;52.690;6.184;2022-07-29T06:40:12;3.80;;;2.03;;
53052;SDS011;38934;52.690;6.184;2022-07-29T06:42:56;4.65;;;1.95;;
53052;SDS011;38934;52.690;6.184;2022-07-29T06:45:22;4.03;;;2.10;;
53052;SDS011;38934;52.690;6.184;2022-07-29T06:47:49;5.07;;;1.98;;
53052;SDS011;38934;52.690;6.184;2022-07-29T06:50:14;4.20;;;2.20;;
53052;SDS011;38934;52.690;6.184;2022-07-29T06:52:40;3.85;;;2.20;;
53052;SDS011;38934;52.690;6.184;2022-07-29T06:55:06;4.03;;;1.98;;
53052;SDS011;38934;52.690;6.184;2022-07-29T06:57:33;3.17;;;1.92;;
53052;SDS011;38934;52.690;6.184;2022-07-29T06:59:59;2.40;;;2.10;;
53052;SDS011;38934;52.690;6.184;2022-07-29T07:02:25;4.75;;;2.22;;
53052;SDS011;38934;52.690;6.184;2022-07-29T07:04:50;3.38;;;2.30;;
53052;SDS011;38934;52.690;6.184;2022-07-29T07:07:16;5.07;;;2.25;;
53052;SDS011;38934;52.690;6.184;2022-07-29T07:09:42;4.07;;;2.60;;
53052;SDS011;38934;52.690;6.184;2022-07-29T07:12:08;3.03;;;2.00;;
53052;SDS011;38934;52.690;6.184;2022-07-29T07:14:34;5.93;;;2.40;;
53052;SDS011;38934;52.690;6.184;2022-07-29T07:16:59;4.38;;;2.50;;
53052;SDS011;38934;52.690;6.184;2022-07-29T07:19:25;4.90;;;2.33;;
53052;SDS011;38934;52.690;6.184;2022-07-29T07:21:52;3.42;;;2.28;;
53052;SDS011;38934;52.690;6.184;2022-07-29T07:24:18;6.18;;;2.50;;
53052;SDS011;38934;52.690;6.184;2022-07-29T07:26:44;3.47;;;2.28;;
53052;SDS011;38934;52.690;6.184;2022-07-29T07:29:09;4.22;;;2.28;;
53052;SDS011;38934;52.690;6.184;2022-07-29T07:31:36;2.33;;;2.10;;
53052;SDS011;38934;52.690;6.184;2022-07-29T07:34:02;4.60;;;2.72;;
53052;SDS011;38934;52.690;6.184;2022-07-29T07:36:27;7.32;;;2.90;;
53052;SDS011;38934;52.690;6.184;2022-07-29T07:38:53;3.95;;;2.28;;
53052;SDS011;38934;52.690;6.184;2022-07-29T07:41:19;4.05;;;2.60;;
53052;SDS011;38934;52.690;6.184;2022-07-29T07:43:44;3.38;;;2.67;;
53052;SDS011;38934;52.690;6.184;2022-07-29T07:46:10;5.03;;;2.50;;
53052;SDS011;38934;52.690;6.184;2022-07-29T07:48:35;5.45;;;2.70;;
53052;SDS011;38934;52.690;6.184;2022-07-29T07:51:01;4.50;;;2.92;;
53052;SDS011;38934;52.690;6.184;2022-07-29T07:53:27;5.05;;;2.90;;
53052;SDS011;38934;52.690;6.184;2022-07-29T07:55:54;4.03;;;2.80;;
53052;SDS011;38934;52.690;6.184;2022-07-29T07:58:20;4.90;;;2.85;;
53052;SDS011;38934;52.690;6.184;2022-07-29T08:00:46;4.10;;;2.45;;
53052;SDS011;38934;52.690;6.184;2022-07-29T08:03:12;4.97;;;3.08;;
53052;SDS011;38934;52.690;6.184;2022-07-29T08:05:39;8.02;;;2.97;;
53052;SDS011;38934;52.690;6.184;2022-07-29T08:08:05;6.32;;;3.20;;
53052;SDS011;38934;52.690;6.184;2022-07-29T08:10:32;5.72;;;2.70;;
53052;SDS011;38934;52.690;6.184;2022-07-29T08:13:16;6.60;;;2.80;;
53052;SDS011;38934;52.690;6.184;2022-07-29T08:15:41;3.97;;;2.65;;
53052;SDS011;38934;52.690;6.184;2022-07-29T08:18:08;4.47;;;2.60;;
53052;SDS011;38934;52.690;6.184;2022-07-29T08:20:34;4.00;;;2.90;;
53052;SDS011;38934;52.690;6.184;2022-07-29T08:23:01;4.40;;;2.55;;
53052;SDS011;38934;52.690;6.184;2022-07-29T08:25:27;6.18;;;2.58;;
53052;SDS011;38934;52.690;6.184;2022-07-29T08:27:53;4.97;;;2.30;;
53052;SDS011;38934;52.690;6.184;2022-07-29T08:30:19;3.80;;;2.50;;
53052;SDS011;38934;52.690;6.184;2022-07-29T08:32:44;5.22;;;2.40;;
53052;SDS011;38934;52.690;6.184;2022-07-29T08:35:10;3.80;;;2.55;;
53052;SDS011;38934;52.690;6.184;2022-07-29T08:37:35;4.95;;;2.60;;
53052;SDS011;38934;52.690;6.184;2022-07-29T08:40:01;4.35;;;2.42;;
53052;SDS011;38934;52.690;6.184;2022-07-29T08:42:27;5.45;;;2.40;;
53052;SDS011;38934;52.690;6.184;2022-07-29T08:44:53;3.08;;;2.30;;
53052;SDS011;38934;52.690;6.184;2022-07-29T08:47:19;4.90;;;2.40;;
53052;SDS011;38934;52.690;6.184;2022-07-29T08:49:45;4.05;;;2.20;;
53052;SDS011;38934;52.690;6.184;2022-07-29T08:52:13;4.68;;;2.22;;
53052;SDS011;38934;52.690;6.184;2022-07-29T08:54:40;4.55;;;2.10;;
53052;SDS011;38934;52.690;6.184;2022-07-29T08:57:09;7.80;;;2.60;;
53052;SDS011;38934;52.690;6.184;2022-07-29T08:59:38;19.83;;;3.38;;
53052;SDS011;38934;52.690;6.184;2022-07-29T09:02:08;4.20;;;2.55;;
53052;SDS011;38934;52.690;6.184;2022-07-29T09:04:43;5.25;;;2.53;;
53052;SDS011;38934;52.690;6.184;2022-07-29T09:07:10;3.08;;;2.65;;
53052;SDS011;38934;52.690;6.184;2022-07-29T09:09:39;3.92;;;2.80;;
53052;SDS011;38934;52.690;6.184;2022-07-29T09:12:05;4.47;;;2.50;;
53052;SDS011;38934;52.690;6.184;2022-07-29T09:14:33;4.72;;;2.70;;
53052;SDS011;38934;52.690;6.184;2022-07-29T09:16:58;5.10;;;2.28;;
53052;SDS011;38934;52.690;6.184;2022-07-29T09:19:28;3.83;;;2.50;;
53052;SDS011;38934;52.690;6.184;2022-07-29T09:21:57;5.38;;;2.72;;
53052;SDS011;38934;52.690;6.184;2022-07-29T09:24:25;3.08;;;2.30;;
53052;SDS011;38934;52.690;6.184;2022-07-29T09:26:57;3.53;;;2.42;;
53052;SDS011;38934;52.690;6.184;2022-07-29T09:29:23;4.00;;;2.83;;
53052;SDS011;38934;52.690;6.184;2022-07-29T09:31:51;4.03;;;2.38;;
53052;SDS011;38934;52.690;6.184;2022-07-29T09:34:22;5.07;;;2.50;;
53052;SDS011;38934;52.690;6.184;2022-07-29T09:36:53;4.30;;;2.42;;
53052;SDS011;38934;52.690;6.184;2022-07-29T09:39:26;4.65;;;2.38;;
53052;SDS011;38934;52.690;6.184;2022-07-29T09:42:01;4.18;;;2.33;;
53052;SDS011;38934;52.690;6.184;2022-07-29T09:44:48;2.83;;;2.08;;
53052;SDS011;38934;52.690;6.184;2022-07-29T09:47:15;3.83;;;2.15;;
53052;SDS011;38934;52.690;6.184;2022-07-29T09:49:57;4.10;;;2.10;;
53052;SDS011;38934;52.690;6.184;2022-07-29T09:52:28;4.10;;;2.20;;
53052;SDS011;38934;52.690;6.184;2022-07-29T09:55:07;4.13;;;2.15;;
53052;SDS011;38934;52.690;6.184;2022-07-29T09:57:33;3.42;;;2.42;;
53052;SDS011;38934;52.690;6.184;2022-07-29T10:00:00;3.13;;;2.28;;
53052;SDS011;38934;52.690;6.184;2022-07-29T10:02:35;4.15;;;2.15;;
53052;SDS011;38934;52.690;6.184;2022-07-29T10:05:02;3.65;;;2.13;;
53052;SDS011;38934;52.690;6.184;2022-07-29T10:07:43;3.08;;;2.00;;
53052;SDS011;38934;52.690;6.184;2022-07-29T10:10:08;4.10;;;2.22;;
53052;SDS011;38934;52.690;6.184;2022-07-29T10:12:34;4.07;;;2.22;;
53052;SDS011;38934;52.690;6.184;2022-07-29T10:15:15;5.72;;;2.58;;
53052;SDS011;38934;52.690;6.184;2022-07-29T10:17:40;3.40;;;2.22;;
53052;SDS011;38934;52.690;6.184;2022-07-29T10:20:07;3.13;;;2.00;;
53052;SDS011;38934;52.690;6.184;2022-07-29T10:22:33;5.38;;;2.17;;
53052;SDS011;38934;52.690;6.184;2022-07-29T10:24:59;4.07;;;2.72;;
53052;SDS011;38934;52.690;6.184;2022-07-29T10:27:25;4.38;;;2.38;;
53052;SDS011;38934;52.690;6.184;2022-07-29T10:29:50;4.38;;;2.50;;
53052;SDS011;38934;52.690;6.184;2022-07-29T10:32:19;4.88;;;2.75;;
53052;SDS011;38934;52.690;6.184;2022-07-29T10:40:19;5.72;;;2.42;;
53052;SDS011;38934;52.690;6.184;2022-07-29T10:43:26;5.10;;;2.58;;
53052;SDS011;38934;52.690;6.184;2022-07-29T10:45:58;5.05;;;2.38;;
53052;SDS011;38934;52.690;6.184;2022-07-29T10:48:25;4.63;;;2.47;;
53052;SDS011;38934;52.690;6.184;2022-07-29T10:50:52;5.90;;;2.45;;
53052;SDS011;38934;52.690;6.184;2022-07-29T10:53:20;5.43;;;2.35;;
53052;SDS011;38934;52.690;6.184;2022-07-29T10:55:47;4.55;;;2.38;;
53052;SDS011;38934;52.690;6.184;2022-07-29T11:00:42;4.22;;;2.30;;
53052;SDS011;38934;52.690;6.184;2022-07-29T11:03:08;3.65;;;2.20;;
53052;SDS011;38934;52.690;6.184;2022-07-29T11:05:56;6.45;;;2.50;;
53052;SDS011;38934;52.690;6.184;2022-07-29T11:08:22;5.22;;;2.55;;
53052;SDS011;38934;52.690;6.184;2022-07-29T11:10:49;9.05;;;2.15;;
53052;SDS011;38934;52.690;6.184;2022-07-29T11:16:11;3.65;;;2.38;;
53052;SDS011;38934;52.690;6.184;2022-07-29T11:21:38;3.90;;;2.47;;
53052;SDS011;38934;52.690;6.184;2022-07-29T11:24:14;3.08;;;2.13;;
53052;SDS011;38934;52.690;6.184;2022-07-29T11:27:04;3.03;;;2.33;;
53052;SDS011;38934;52.690;6.184;2022-07-29T11:29:39;4.35;;;2.05;;
53052;SDS011;38934;52.690;6.184;2022-07-29T11:32:13;3.30;;;2.33;;
53052;SDS011;38934;52.690;6.184;2022-07-29T11:34:41;3.65;;;2.10;;
53052;SDS011;38934;52.690;6.184;2022-07-29T11:39:34;4.82;;;2.50;;
53052;SDS011;38934;52.690;6.184;2022-07-29T11:45:01;4.22;;;1.95;;
53052;SDS011;38934;52.690;6.184;2022-07-29T11:47:32;3.55;;;1.77;;
53052;SDS011;38934;52.690;6.184;2022-07-29T11:49:59;3.25;;;1.90;;
53052;SDS011;38934;52.690;6.184;2022-07-29T11:52:36;3.55;;;1.98;;
53052;SDS011;38934;52.690;6.184;2022-07-29T11:55:20;5.43;;;2.55;;
53052;SDS011;38934;52.690;6.184;2022-07-29T12:00:35;3.30;;;2.03;;
53052;SDS011;38934;52.690;6.184;2022-07-29T12:03:06;4.03;;;2.00;;
53052;SDS011;38934;52.690;6.184;2022-07-29T12:10:38;4.30;;;2.15;;
53052;SDS011;38934;52.690;6.184;2022-07-29T12:13:04;3.85;;;2.20;;
53052;SDS011;38934;52.690;6.184;2022-07-29T12:15:30;6.72;;;2.33;;
53052;SDS011;38934;52.690;6.184;2022-07-29T12:17:56;4.00;;;2.75;;
53052;SDS011;38934;52.690;6.184;2022-07-29T12:20:22;5.07;;;2.13;;
53052;SDS011;38934;52.690;6.184;2022-07-29T12:22:58;3.65;;;2.28;;
53052;SDS011;38934;52.690;6.184;2022-07-29T12:25:32;3.85;;;1.98;;
53052;SDS011;38934;52.690;6.184;2022-07-29T12:27:59;3.80;;;2.25;;
53052;SDS011;38934;52.690;6.184;2022-07-29T12:30:39;4.05;;;2.40;;
53052;SDS011;38934;52.690;6.184;2022-07-29T12:33:20;4.05;;;2.30;;
53052;SDS011;38934;52.690;6.184;2022-07-29T12:35:56;3.90;;;2.40;;
53052;SDS011;38934;52.690;6.184;2022-07-29T12:38:23;3.33;;;2.30;;
53052;SDS011;38934;52.690;6.184;2022-07-29T12:40:48;5.07;;;2.50;;
53052;SDS011;38934;52.690;6.184;2022-07-29T12:43:17;7.25;;;2.50;;
53052;SDS011;38934;52.690;6.184;2022-07-29T12:45:45;4.78;;;2.30;;
53052;SDS011;38934;52.690;6.184;2022-07-29T12:48:13;3.67;;;2.05;;
53052;SDS011;38934;52.690;6.184;2022-07-29T12:53:39;3.38;;;2.10;;
53052;SDS011;38934;52.690;6.184;2022-07-29T12:56:05;4.70;;;2.55;;
53052;SDS011;38934;52.690;6.184;2022-07-29T12:58:36;5.65;;;2.70;;
53052;SDS011;38934;52.690;6.184;2022-07-29T13:06:26;5.88;;;2.25;;
53052;SDS011;38934;52.690;6.184;2022-07-29T13:09:09;3.42;;;1.80;;
53052;SDS011;38934;52.690;6.184;2022-07-29T13:11:42;6.40;;;2.05;;
53052;SDS011;38934;52.690;6.184;2022-07-29T13:14:11;4.30;;;2.10;;
53052;SDS011;38934;52.690;6.184;2022-07-29T13:19:44;3.50;;;2.10;;
53052;SDS011;38934;52.690;6.184;2022-07-29T13:22:16;6.60;;;2.20;;
53052;SDS011;38934;52.690;6.184;2022-07-29T13:24:52;4.43;;;2.15;;
53052;SDS011;38934;52.690;6.184;2022-07-29T13:27:23;4.70;;;2.00;;
53052;SDS011;38934;52.690;6.184;2022-07-29T13:29:51;5.05;;;2.10;;
53052;SDS011;38934;52.690;6.184;2022-07-29T13:32:18;5.35;;;1.95;;
53052;SDS011;38934;52.690;6.184;2022-07-29T13:34:45;4.28;;;2.20;;
53052;SDS011;38934;52.690;6.184;2022-07-29T13:37:10;3.63;;;2.33;;
53052;SDS011;38934;52.690;6.184;2022-07-29T13:39:36;4.32;;;2.50;;
53052;SDS011;38934;52.690;6.184;2022-07-29T13:42:02;4.30;;;2.17;;
53052;SDS011;38934;52.690;6.184;2022-07-29T13:44:28;5.47;;;2.33;;
53052;SDS011;38934;52.690;6.184;2022-07-29T13:46:54;3.85;;;2.28;;
53052;SDS011;38934;52.690;6.184;2022-07-29T13:49:21;6.82;;;2.60;;
53052;SDS011;38934;52.690;6.184;2022-07-29T13:51:47;3.25;;;2.28;;
53052;SDS011;38934;52.690;6.184;2022-07-29T13:54:14;3.83;;;2.60;;
53052;SDS011;38934;52.690;6.184;2022-07-29T13:56:39;4.40;;;2.83;;
53052;SDS011;38934;52.690;6.184;2022-07-29T13:59:05;6.05;;;2.85;;
53052;SDS011;38934;52.690;6.184;2022-07-29T14:01:30;4.63;;;2.42;;
53052;SDS011;38934;52.690;6.184;2022-07-29T14:03:56;6.03;;;2.70;;
53052;SDS011;38934;52.690;6.184;2022-07-29T14:06:22;6.00;;;2.45;;
53052;SDS011;38934;52.690;6.184;2022-07-29T14:08:47;4.18;;;2.50;;
53052;SDS011;38934;52.690;6.184;2022-07-29T14:11:13;3.72;;;2.63;;
53052;SDS011;38934;52.690;6.184;2022-07-29T14:13:39;3.90;;;2.53;;
53052;SDS011;38934;52.690;6.184;2022-07-29T14:16:04;3.58;;;2.55;;
53052;SDS011;38934;52.690;6.184;2022-07-29T14:18:31;6.63;;;2.40;;
53052;SDS011;38934;52.690;6.184;2022-07-29T14:20:57;4.65;;;2.38;;
53052;SDS011;38934;52.690;6.184;2022-07-29T14:23:23;3.72;;;2.50;;
53052;SDS011;38934;52.690;6.184;2022-07-29T14:25:48;4.75;;;2.40;;
53052;SDS011;38934;52.690;6.184;2022-07-29T14:28:14;3.85;;;2.10;;
53052;SDS011;38934;52.690;6.184;2022-07-29T14:30:40;3.72;;;2.40;;
53052;SDS011;38934;52.690;6.184;2022-07-29T14:33:05;4.78;;;2.22;;
53052;SDS011;38934;52.690;6.184;2022-07-29T14:35:31;3.95;;;2.15;;
53052;SDS011;38934;52.690;6.184;2022-07-29T14:37:56;3.72;;;2.15;;
53052;SDS011;38934;52.690;6.184;2022-07-29T14:40:22;3.78;;;2.20;;
53052;SDS011;38934;52.690;6.184;2022-07-29T14:42:48;4.13;;;2.08;;
53052;SDS011;38934;52.690;6.184;2022-07-29T14:45:14;1.90;;;1.70;;
53052;SDS011;38934;52.690;6.184;2022-07-29T14:47:39;3.42;;;2.40;;
53052;SDS011;38934;52.690;6.184;2022-07-29T14:50:05;2.97;;;1.90;;
53052;SDS011;38934;52.690;6.184;2022-07-29T14:52:31;4.07;;;2.10;;
53052;SDS011;38934;52.690;6.184;2022-07-29T14:54:57;4.25;;;1.80;;
53052;SDS011;38934;52.690;6.184;2022-07-29T14:57:23;1.60;;;1.50;;
53052;SDS011;38934;52.690;6.184;2022-07-29T14:59:48;5.85;;;1.90;;
53052;SDS011;38934;52.690;6.184;2022-07-29T15:02:14;3.22;;;1.70;;
53052;SDS011;38934;52.690;6.184;2022-07-29T15:04:39;3.75;;;1.67;;
53052;SDS011;38934;52.690;6.184;2022-07-29T15:07:05;3.47;;;1.70;;
53052;SDS011;38934;52.690;6.184;2022-07-29T15:09:31;3.03;;;2.00;;
53052;SDS011;38934;52.690;6.184;2022-07-29T15:11:56;3.30;;;1.80;;
53052;SDS011;38934;52.690;6.184;2022-07-29T15:14:22;2.53;;;1.38;;
53052;SDS011;38934;52.690;6.184;2022-07-29T15:16:47;4.07;;;1.67;;
53052;SDS011;38934;52.690;6.184;2022-07-29T15:19:13;4.88;;;1.60;;
53052;SDS011;38934;52.690;6.184;2022-07-29T15:21:38;3.33;;;1.45;;
53052;SDS011;38934;52.690;6.184;2022-07-29T15:24:04;3.13;;;1.48;;
53052;SDS011;38934;52.690;6.184;2022-07-29T15:26:32;3.60;;;1.58;;
53052;SDS011;38934;52.690;6.184;2022-07-29T15:28:57;3.80;;;1.77;;
53052;SDS011;38934;52.690;6.184;2022-07-29T15:31:24;3.67;;;1.67;;
53052;SDS011;38934;52.690;6.184;2022-07-29T15:33:49;2.53;;;1.77;;
53052;SDS011;38934;52.690;6.184;2022-07-29T15:36:15;2.45;;;1.60;;
53052;SDS011;38934;52.690;6.184;2022-07-29T15:38:41;3.75;;;1.70;;
53052;SDS011;38934;52.690;6.184;2022-07-29T15:41:06;2.13;;;1.60;;
53052;SDS011;38934;52.690;6.184;2022-07-29T15:43:32;4.32;;;1.50;;
53052;SDS011;38934;52.690;6.184;2022-07-29T15:46:00;3.38;;;1.60;;
53052;SDS011;38934;52.690;6.184;2022-07-29T15:48:44;3.28;;;1.70;;